Terminal Aerodrome Forecast
Issued by NWS

Home | Current Version | Previous Version | Text Only | Print | Product List | Glossary On
Versions: 1 2 3 4 5 6 7 8 9 10 11 12 13
524
FTUS43 KDVN 031730
TAFCID
TAF
KCID 031730Z 0318/0418 28015G25KT P6SM BKN060
     FM040000 25010KT P6SM BKN080
     FM040200 24013KT P6SM VCSH BKN060
      TEMPO 0403/0405 5SM -SHRA BKN040
     FM040600 31013KT P6SM SCT100
     FM041500 35017G25KT P6SM SCT035=

USA.gov is the U.S. government's official web portal to all federal, state and local government web resources and services.